createdAt,value
2017-07-26T00:00:56.751Z,980.75
2017-07-26T00:01:56.751Z,980.79
2017-07-26T00:02:56.752Z,980.78
2017-07-26T00:03:56.751Z,980.78
2017-07-26T00:04:56.754Z,980.72
2017-07-26T00:05:56.751Z,980.71
2017-07-26T00:06:56.756Z,980.8
2017-07-26T00:07:56.754Z,980.79
2017-07-26T00:08:56.758Z,980.78
2017-07-26T00:09:56.753Z,980.74
2017-07-26T00:10:56.753Z,980.79
2017-07-26T00:11:56.753Z,980.77
2017-07-26T00:12:56.753Z,980.79
2017-07-26T00:13:56.753Z,980.77
2017-07-26T00:14:56.760Z,980.81
2017-07-26T00:15:56.756Z,980.82
2017-07-26T00:16:56.753Z,980.82
2017-07-26T00:17:56.753Z,980.84
2017-07-26T00:18:56.758Z,980.9
2017-07-26T00:19:56.761Z,980.89
2017-07-26T00:20:56.753Z,980.9
2017-07-26T00:21:56.754Z,980.89
2017-07-26T00:22:56.753Z,980.93
2017-07-26T00:23:56.758Z,980.88
2017-07-26T00:24:56.754Z,980.91
2017-07-26T00:25:56.766Z,980.89
2017-07-26T00:26:56.761Z,980.87
2017-07-26T00:27:56.754Z,980.92
2017-07-26T00:28:56.765Z,980.89
2017-07-26T00:29:58.755Z,980.83
2017-07-26T00:30:56.754Z,980.82
2017-07-26T00:31:56.754Z,980.81
2017-07-26T00:32:56.755Z,980.92
2017-07-26T00:33:56.753Z,980.89
2017-07-26T00:34:56.755Z,980.89
2017-07-26T00:35:56.754Z,980.82
2017-07-26T00:36:56.754Z,980.86
2017-07-26T00:37:56.753Z,980.86
2017-07-26T00:38:56.756Z,980.86
2017-07-26T00:39:56.754Z,980.81
2017-07-26T00:40:56.754Z,980.81
2017-07-26T00:41:56.754Z,980.83
2017-07-26T00:42:56.776Z,980.76
2017-07-26T00:43:56.753Z,980.83
2017-07-26T00:44:56.753Z,980.83
2017-07-26T00:45:56.755Z,980.8
2017-07-26T00:46:56.753Z,980.79
2017-07-26T00:47:56.753Z,980.78
2017-07-26T00:48:56.754Z,980.71
2017-07-26T00:49:56.754Z,980.82
2017-07-26T00:50:56.754Z,980.79
2017-07-26T00:51:56.754Z,980.82
2017-07-26T00:52:56.756Z,980.76
2017-07-26T00:53:56.753Z,980.65
2017-07-26T00:54:56.756Z,980.71
2017-07-26T00:55:56.754Z,980.71
2017-07-26T00:56:56.753Z,980.68
2017-07-26T00:57:56.754Z,980.7
2017-07-26T00:58:56.754Z,980.71
2017-07-26T00:59:56.754Z,980.72
2017-07-26T01:00:56.753Z,980.73
2017-07-26T01:01:56.758Z,980.8
2017-07-26T01:02:56.756Z,980.74
2017-07-26T01:03:56.754Z,980.67
2017-07-26T01:04:56.757Z,980.67
2017-07-26T01:05:56.754Z,980.63
2017-07-26T01:06:56.752Z,980.62
2017-07-26T01:07:56.753Z,980.66
2017-07-26T01:08:56.758Z,980.66
2017-07-26T01:09:56.752Z,980.65
2017-07-26T01:10:56.754Z,980.67
2017-07-26T01:11:56.758Z,980.66
2017-07-26T01:12:56.755Z,980.67
2017-07-26T01:13:56.755Z,980.64
2017-07-26T01:14:56.752Z,980.71
2017-07-26T01:15:56.753Z,980.61
2017-07-26T01:16:56.756Z,980.63
2017-07-26T01:17:56.762Z,980.72
2017-07-26T01:18:56.751Z,980.7
2017-07-26T01:19:56.752Z,980.71
2017-07-26T01:20:56.751Z,980.74
2017-07-26T01:21:56.759Z,980.72
2017-07-26T01:22:56.758Z,980.75
2017-07-26T01:23:56.753Z,980.77
2017-07-26T01:24:56.764Z,980.8
2017-07-26T01:25:56.763Z,980.79
2017-07-26T01:26:56.758Z,980.8
2017-07-26T01:27:56.752Z,980.75
2017-07-26T01:28:56.751Z,980.75
2017-07-26T01:29:56.758Z,980.81
2017-07-26T01:30:56.762Z,980.86
2017-07-26T01:31:56.751Z,980.83
2017-07-26T01:32:56.751Z,980.86
2017-07-26T01:33:56.752Z,980.82
2017-07-26T01:34:56.754Z,980.83
2017-07-26T01:35:56.755Z,980.85
2017-07-26T01:36:56.766Z,980.89
2017-07-26T01:37:56.753Z,980.9
2017-07-26T01:38:56.759Z,980.88
2017-07-26T01:39:56.755Z,980.88
2017-07-26T01:40:56.753Z,980.93
2017-07-26T01:41:56.756Z,980.88
2017-07-26T01:42:56.757Z,980.85
2017-07-26T01:43:56.754Z,980.88
2017-07-26T01:44:56.758Z,980.88
2017-07-26T01:45:56.810Z,980.84
2017-07-26T01:46:56.755Z,980.9
2017-07-26T01:47:56.758Z,980.9
2017-07-26T01:48:56.759Z,980.88
2017-07-26T01:49:56.761Z,980.91
2017-07-26T01:50:56.758Z,980.93
2017-07-26T01:51:56.758Z,980.97
2017-07-26T01:52:56.762Z,980.95
2017-07-26T01:53:56.763Z,981.01
2017-07-26T01:54:56.758Z,981.09
2017-07-26T01:55:56.751Z,981
2017-07-26T01:56:56.761Z,981.04
2017-07-26T01:57:56.756Z,981.04
2017-07-26T01:58:56.753Z,981.1
2017-07-26T01:59:56.752Z,981.15
2017-07-26T02:01:01.105Z,981.21
2017-07-26T02:01:56.755Z,981.2
2017-07-26T02:02:56.752Z,981.24
2017-07-26T02:03:56.757Z,981.29
2017-07-26T02:04:56.756Z,981.27
2017-07-26T02:05:56.758Z,981.22
2017-07-26T02:06:56.756Z,981.26
2017-07-26T02:07:56.756Z,981.21
2017-07-26T02:08:56.758Z,981.29
2017-07-26T02:09:56.758Z,981.29
2017-07-26T02:10:56.756Z,981.29
2017-07-26T02:11:56.759Z,981.3
2017-07-26T02:12:56.761Z,981.23
2017-07-26T02:13:56.763Z,981.27
2017-07-26T02:14:56.761Z,981.25
2017-07-26T02:15:56.784Z,981.21
2017-07-26T02:16:56.762Z,981.25
2017-07-26T02:17:56.762Z,981.3
2017-07-26T02:18:56.762Z,981.39
2017-07-26T02:19:56.763Z,981.29
2017-07-26T02:20:56.762Z,981.35
2017-07-26T02:21:56.755Z,981.29
2017-07-26T02:22:56.754Z,981.39
2017-07-26T02:23:56.764Z,981.38
2017-07-26T02:24:56.754Z,981.35
2017-07-26T02:25:56.765Z,981.34
2017-07-26T02:26:56.757Z,981.36
2017-07-26T02:27:56.754Z,981.27
2017-07-26T02:28:56.754Z,981.38
2017-07-26T02:29:56.753Z,981.43
2017-07-26T02:30:56.754Z,981.36
2017-07-26T02:31:56.753Z,981.4
2017-07-26T02:32:56.752Z,981.36
2017-07-26T02:33:56.752Z,981.44
2017-07-26T02:34:56.753Z,981.27
2017-07-26T02:35:56.777Z,981.49
2017-07-26T02:36:56.753Z,981.46
2017-07-26T02:37:56.751Z,981.41
2017-07-26T02:38:56.754Z,981.43
2017-07-26T02:39:56.753Z,981.49
2017-07-26T02:40:56.752Z,981.46
2017-07-26T02:41:56.752Z,981.46
2017-07-26T02:42:56.754Z,981.54
2017-07-26T02:43:56.753Z,981.53
2017-07-26T02:44:56.752Z,981.53
2017-07-26T02:45:56.752Z,981.63
2017-07-26T02:46:56.752Z,981.55
2017-07-26T02:47:56.753Z,981.57
2017-07-26T02:48:56.752Z,981.62
2017-07-26T02:49:56.752Z,981.66
2017-07-26T02:50:56.752Z,981.69
2017-07-26T02:51:56.752Z,981.75
2017-07-26T02:52:56.751Z,981.71
2017-07-26T02:53:56.752Z,981.69
2017-07-26T02:54:56.753Z,981.7
2017-07-26T02:55:56.752Z,981.73
2017-07-26T02:56:56.753Z,981.74
2017-07-26T02:57:56.752Z,981.77
2017-07-26T02:58:56.754Z,981.8
2017-07-26T02:59:56.753Z,981.76
2017-07-26T03:00:56.756Z,981.73
2017-07-26T03:01:57.203Z,981.8
2017-07-26T03:02:56.751Z,981.77
2017-07-26T03:03:56.752Z,981.74
2017-07-26T03:04:56.752Z,981.75
2017-07-26T03:05:56.752Z,981.79
2017-07-26T03:06:56.750Z,981.85
2017-07-26T03:07:56.752Z,981.88
2017-07-26T03:08:56.752Z,981.89
2017-07-26T03:09:56.753Z,981.92
2017-07-26T03:10:56.751Z,981.89
2017-07-26T03:11:56.751Z,981.92
2017-07-26T03:12:56.752Z,981.9
2017-07-26T03:13:56.751Z,981.94
2017-07-26T03:14:56.755Z,981.95
2017-07-26T03:15:56.753Z,981.91
2017-07-26T03:16:57.602Z,981.95
2017-07-26T03:17:56.750Z,981.99
2017-07-26T03:18:56.751Z,982.01
2017-07-26T03:19:56.753Z,981.97
2017-07-26T03:20:56.751Z,981.94
2017-07-26T03:21:56.751Z,981.92
2017-07-26T03:22:56.751Z,981.96
2017-07-26T03:23:56.755Z,981.98
2017-07-26T03:24:56.751Z,981.96
2017-07-26T03:25:56.750Z,982.02
2017-07-26T03:26:56.751Z,982
2017-07-26T03:27:56.750Z,982.01
2017-07-26T03:28:56.750Z,982
2017-07-26T03:29:56.751Z,982.03
2017-07-26T03:30:56.752Z,981.99
2017-07-26T03:31:56.751Z,981.95
2017-07-26T03:32:56.750Z,982.01
2017-07-26T03:33:56.751Z,982.04
2017-07-26T03:34:56.751Z,982.03
2017-07-26T03:35:56.753Z,982.03
2017-07-26T03:36:56.752Z,982.03
2017-07-26T03:37:56.750Z,981.98
2017-07-26T03:38:56.750Z,982.05
2017-07-26T03:39:56.753Z,982.04
2017-07-26T03:40:56.755Z,982.02
2017-07-26T03:41:56.794Z,982.04
2017-07-26T03:42:56.753Z,982.07
2017-07-26T03:43:56.753Z,982.06
2017-07-26T03:44:56.754Z,982.05
2017-07-26T03:45:56.759Z,982.1
2017-07-26T03:46:56.756Z,982.13
2017-07-26T03:47:56.759Z,982.14
2017-07-26T03:48:56.755Z,982.15
2017-07-26T03:49:56.759Z,982.19
2017-07-26T03:50:56.757Z,982.22
2017-07-26T03:51:56.758Z,982.22
2017-07-26T03:52:56.759Z,982.23
2017-07-26T03:53:56.759Z,982.25
2017-07-26T03:54:56.757Z,982.19
2017-07-26T03:55:56.760Z,982.24
2017-07-26T03:56:56.759Z,982.24
2017-07-26T03:57:56.751Z,982.22
2017-07-26T03:58:56.751Z,982.23
2017-07-26T03:59:56.759Z,982.23
2017-07-26T04:00:56.754Z,982.2
2017-07-26T04:01:56.750Z,982.21
2017-07-26T04:02:56.751Z,982.24
2017-07-26T04:03:56.751Z,982.22
2017-07-26T04:04:56.750Z,982.27
2017-07-26T04:05:56.753Z,982.26
2017-07-26T04:06:56.752Z,982.24
2017-07-26T04:07:56.764Z,982.28
2017-07-26T04:08:56.752Z,982.25
2017-07-26T04:09:56.750Z,982.24
2017-07-26T04:10:56.752Z,982.27
2017-07-26T04:11:56.752Z,982.26
2017-07-26T04:12:56.751Z,982.26
2017-07-26T04:13:56.752Z,982.27
2017-07-26T04:14:56.752Z,982.26
2017-07-26T04:15:56.752Z,982.27
2017-07-26T04:16:56.752Z,982.27
2017-07-26T04:17:56.752Z,982.22
2017-07-26T04:18:56.753Z,982.27
2017-07-26T04:19:56.754Z,982.32
2017-07-26T04:20:56.753Z,982.31
2017-07-26T04:21:56.753Z,982.35
2017-07-26T04:22:56.753Z,982.4
2017-07-26T04:23:56.752Z,982.34
2017-07-26T04:24:56.752Z,982.38
2017-07-26T04:25:56.753Z,982.42
2017-07-26T04:26:56.753Z,982.4
2017-07-26T04:27:56.755Z,982.42
2017-07-26T04:28:56.753Z,982.48
2017-07-26T04:29:56.755Z,982.49
2017-07-26T04:30:56.756Z,982.44
2017-07-26T04:31:56.755Z,982.47
2017-07-26T04:32:56.755Z,982.47
2017-07-26T04:33:56.756Z,982.49
2017-07-26T04:34:56.757Z,982.54
2017-07-26T04:35:56.756Z,982.5
2017-07-26T04:36:56.755Z,982.51
2017-07-26T04:37:56.758Z,982.56
2017-07-26T04:38:56.755Z,982.55
2017-07-26T04:39:56.756Z,982.59
2017-07-26T04:40:56.762Z,982.56
2017-07-26T04:41:56.761Z,982.56
2017-07-26T04:42:56.756Z,982.55
2017-07-26T04:43:56.760Z,982.57
2017-07-26T04:44:56.759Z,982.54
2017-07-26T04:45:56.760Z,982.54
2017-07-26T04:46:56.759Z,982.59
2017-07-26T04:47:56.761Z,982.58
2017-07-26T04:48:56.759Z,982.61
2017-07-26T04:49:56.761Z,982.62
2017-07-26T04:50:56.763Z,982.61
2017-07-26T04:51:56.762Z,982.6
2017-07-26T04:52:56.761Z,982.59
2017-07-26T04:53:56.762Z,982.63
2017-07-26T04:54:56.763Z,982.69
2017-07-26T04:55:56.763Z,982.71
2017-07-26T04:56:56.763Z,982.69
2017-07-26T04:57:56.762Z,982.67
2017-07-26T04:58:56.763Z,982.72
2017-07-26T04:59:56.765Z,982.7
2017-07-26T05:00:56.765Z,982.7
2017-07-26T05:01:56.765Z,982.8
2017-07-26T05:02:56.766Z,982.76
2017-07-26T05:03:56.766Z,982.79
2017-07-26T05:04:56.766Z,982.76
2017-07-26T05:05:56.768Z,982.81
2017-07-26T05:06:56.768Z,982.82
2017-07-26T05:07:56.767Z,982.84
2017-07-26T05:08:56.768Z,982.84
2017-07-26T05:09:56.768Z,982.86
2017-07-26T05:10:56.767Z,982.92
2017-07-26T05:11:56.770Z,982.89
2017-07-26T05:12:56.770Z,982.84
2017-07-26T05:13:56.771Z,982.88
2017-07-26T05:14:56.770Z,982.9
2017-07-26T05:15:56.771Z,982.92
2017-07-26T05:16:56.772Z,982.99
2017-07-26T05:17:56.773Z,982.92
2017-07-26T05:18:56.826Z,982.94
2017-07-26T05:19:56.774Z,982.86
2017-07-26T05:20:56.778Z,982.89
2017-07-26T05:21:56.783Z,982.91
2017-07-26T05:22:56.775Z,982.88
2017-07-26T05:23:56.776Z,982.88
2017-07-26T05:24:56.777Z,982.88
2017-07-26T05:25:56.778Z,982.9
2017-07-26T05:26:56.779Z,982.89
2017-07-26T05:27:56.778Z,982.93
2017-07-26T05:28:56.778Z,982.97
2017-07-26T05:29:56.779Z,982.94
2017-07-26T05:30:56.780Z,982.96
2017-07-26T05:31:56.781Z,982.88
2017-07-26T05:32:56.780Z,982.9
2017-07-26T05:33:56.781Z,982.92
2017-07-26T05:34:56.781Z,982.92
2017-07-26T05:35:56.782Z,982.96
2017-07-26T05:36:56.783Z,982.95
2017-07-26T05:37:56.783Z,982.93
2017-07-26T05:38:56.784Z,982.93
2017-07-26T05:39:56.788Z,982.89
2017-07-26T05:40:56.784Z,982.91
2017-07-26T05:41:56.785Z,982.95
2017-07-26T05:42:56.786Z,983.04
2017-07-26T05:43:56.787Z,983
2017-07-26T05:44:56.786Z,982.97
2017-07-26T05:45:56.794Z,983
2017-07-26T05:46:56.793Z,983.07
2017-07-26T05:47:56.789Z,983.06
2017-07-26T05:48:56.788Z,982.99
2017-07-26T05:49:56.789Z,983.09
2017-07-26T05:50:56.789Z,983.04
2017-07-26T05:51:56.790Z,983.01
2017-07-26T05:52:56.792Z,983.02
2017-07-26T05:53:56.792Z,983.03
2017-07-26T05:54:56.790Z,983.05
2017-07-26T05:55:56.794Z,983.06
2017-07-26T05:56:56.794Z,983.12
2017-07-26T05:57:56.795Z,983.09
2017-07-26T05:58:56.820Z,983.08
2017-07-26T05:59:56.874Z,983.08
2017-07-26T06:00:56.876Z,983.08
2017-07-26T06:01:56.795Z,983.07
2017-07-26T06:02:56.799Z,983.05
2017-07-26T06:03:56.798Z,983.07
2017-07-26T06:04:56.799Z,983.09
2017-07-26T06:05:56.799Z,983.15
2017-07-26T06:06:56.800Z,983.14
2017-07-26T06:07:56.803Z,983.18
2017-07-26T06:08:56.802Z,983.17
2017-07-26T06:09:56.804Z,983.18
2017-07-26T06:10:56.806Z,983.21
2017-07-26T06:11:56.804Z,983.17
2017-07-26T06:12:56.804Z,983.18
2017-07-26T06:13:56.807Z,983.21
2017-07-26T06:14:56.806Z,983.21
2017-07-26T06:15:56.807Z,983.17
2017-07-26T06:16:56.807Z,983.17
2017-07-26T06:17:56.808Z,983.2
2017-07-26T06:18:56.807Z,983.19
2017-07-26T06:19:56.808Z,983.19
2017-07-26T06:20:56.808Z,983.19
2017-07-26T06:21:56.810Z,983.25
2017-07-26T06:22:56.810Z,983.15
2017-07-26T06:23:56.811Z,983.2
2017-07-26T06:24:56.817Z,983.25
2017-07-26T06:25:56.814Z,983.29
2017-07-26T06:26:56.813Z,983.27
2017-07-26T06:27:56.839Z,983.26
2017-07-26T06:28:56.815Z,983.3
2017-07-26T06:29:56.814Z,983.27
2017-07-26T06:30:56.816Z,983.28
2017-07-26T06:31:56.817Z,983.24
2017-07-26T06:32:56.817Z,983.26
2017-07-26T06:33:56.819Z,983.27
2017-07-26T06:34:56.818Z,983.31
2017-07-26T06:35:56.819Z,983.36
2017-07-26T06:36:56.819Z,983.32
2017-07-26T06:37:56.821Z,983.32
2017-07-26T06:38:56.832Z,983.36
2017-07-26T06:39:56.822Z,983.33
2017-07-26T06:40:56.824Z,983.39
2017-07-26T06:41:56.824Z,983.34
2017-07-26T06:42:56.823Z,983.36
2017-07-26T06:43:56.825Z,983.33
2017-07-26T06:44:56.826Z,983.32
2017-07-26T06:45:56.827Z,983.34
2017-07-26T06:46:56.826Z,983.35
2017-07-26T06:47:56.829Z,983.4
2017-07-26T06:48:56.829Z,983.38
2017-07-26T06:49:56.879Z,983.41
2017-07-26T06:50:56.830Z,983.43
2017-07-26T06:51:56.831Z,983.41
2017-07-26T06:52:56.831Z,983.37
2017-07-26T06:53:56.832Z,983.47
2017-07-26T06:54:56.834Z,983.5
2017-07-26T06:55:56.845Z,983.53
2017-07-26T06:56:56.834Z,983.57
2017-07-26T06:57:56.835Z,983.56
2017-07-26T06:58:56.846Z,983.62
2017-07-26T06:59:56.837Z,983.61
2017-07-26T07:00:56.843Z,983.56
2017-07-26T07:01:56.837Z,983.61
2017-07-26T07:02:56.839Z,983.53
2017-07-26T07:03:56.844Z,983.5
2017-07-26T07:04:59.692Z,983.52
2017-07-26T07:05:56.840Z,983.57
2017-07-26T07:06:56.851Z,983.53
2017-07-26T07:07:56.839Z,983.53
2017-07-26T07:08:56.840Z,983.56
2017-07-26T07:09:56.841Z,983.54
2017-07-26T07:10:56.842Z,983.59
2017-07-26T07:11:56.852Z,983.6
2017-07-26T07:12:56.843Z,983.58
2017-07-26T07:13:56.843Z,983.62
2017-07-26T07:14:56.847Z,983.63
2017-07-26T07:15:56.844Z,983.66
2017-07-26T07:16:56.844Z,983.68
2017-07-26T07:17:56.871Z,983.7
2017-07-26T07:18:56.845Z,983.61
2017-07-26T07:19:56.858Z,983.74
2017-07-26T07:20:56.847Z,983.76
2017-07-26T07:21:56.852Z,983.72
2017-07-26T07:22:56.857Z,983.73
2017-07-26T07:23:56.849Z,983.74
2017-07-26T07:24:56.858Z,983.75
2017-07-26T07:25:56.855Z,983.8
2017-07-26T07:26:56.850Z,983.81
2017-07-26T07:27:56.858Z,983.8
2017-07-26T07:28:56.853Z,983.81
2017-07-26T07:29:56.860Z,983.79
2017-07-26T07:30:56.861Z,983.8
2017-07-26T07:31:56.862Z,983.82
2017-07-26T07:32:56.862Z,983.85
2017-07-26T07:33:56.866Z,983.88
2017-07-26T07:34:56.865Z,983.83
2017-07-26T07:35:56.863Z,983.82
2017-07-26T07:36:56.865Z,983.8
2017-07-26T07:37:56.865Z,983.85
2017-07-26T07:38:56.864Z,983.81
2017-07-26T07:39:56.866Z,983.85
2017-07-26T07:40:56.867Z,983.87
2017-07-26T07:41:56.869Z,983.88
2017-07-26T07:42:56.869Z,983.88
2017-07-26T07:43:56.867Z,983.83
2017-07-26T07:44:56.869Z,983.85
2017-07-26T07:45:56.868Z,983.83
2017-07-26T07:46:56.871Z,983.82
2017-07-26T07:47:56.873Z,983.78
2017-07-26T07:48:56.872Z,983.78
2017-07-26T07:49:56.873Z,983.81
2017-07-26T07:50:56.877Z,983.83
2017-07-26T07:51:56.876Z,983.77
2017-07-26T07:52:56.877Z,983.73
2017-07-26T07:53:56.880Z,983.73
2017-07-26T07:54:56.879Z,983.73
2017-07-26T07:55:56.880Z,983.71
2017-07-26T07:56:56.882Z,983.8
2017-07-26T07:57:56.884Z,983.75
2017-07-26T07:58:56.883Z,983.82
2017-07-26T07:59:56.883Z,983.75
2017-07-26T08:00:56.941Z,983.77
2017-07-26T08:01:56.886Z,983.75
2017-07-26T08:02:56.886Z,983.73
2017-07-26T08:03:56.887Z,983.78
2017-07-26T08:04:56.909Z,983.77
2017-07-26T08:05:56.890Z,983.83
2017-07-26T08:06:56.894Z,983.81
2017-07-26T08:07:56.890Z,983.81
2017-07-26T08:08:56.891Z,983.8
2017-07-26T08:09:56.892Z,983.83
2017-07-26T08:10:56.894Z,983.77
2017-07-26T08:11:56.895Z,983.73
2017-07-26T08:12:56.898Z,983.74
2017-07-26T08:13:56.896Z,983.81
2017-07-26T08:14:56.899Z,983.79
2017-07-26T08:15:56.899Z,983.85
2017-07-26T08:16:56.900Z,983.83
2017-07-26T08:17:56.903Z,983.87
2017-07-26T08:18:56.901Z,983.84
2017-07-26T08:19:56.904Z,983.88
2017-07-26T08:20:56.905Z,983.88
2017-07-26T08:21:56.902Z,983.85
2017-07-26T08:22:56.904Z,983.87
2017-07-26T08:23:56.904Z,983.88
2017-07-26T08:24:56.906Z,983.85
2017-07-26T08:25:56.909Z,983.87
2017-07-26T08:26:56.908Z,983.88
2017-07-26T08:27:56.910Z,983.99
2017-07-26T08:28:56.912Z,983.97
2017-07-26T08:29:56.911Z,983.91
2017-07-26T08:30:56.914Z,983.89
2017-07-26T08:31:56.914Z,983.92
2017-07-26T08:32:56.915Z,983.89
2017-07-26T08:33:56.918Z,983.84
2017-07-26T08:34:56.916Z,983.83
2017-07-26T08:35:56.919Z,983.84
2017-07-26T08:36:56.918Z,983.94
2017-07-26T08:37:56.920Z,983.98
2017-07-26T08:38:56.923Z,983.93
2017-07-26T08:39:56.923Z,983.96
2017-07-26T08:40:56.925Z,983.92
2017-07-26T08:41:56.924Z,983.95
2017-07-26T08:42:56.926Z,983.92
2017-07-26T08:43:56.930Z,984.05
2017-07-26T08:44:56.928Z,983.97
2017-07-26T08:45:56.932Z,984.03
2017-07-26T08:46:56.929Z,983.97
2017-07-26T08:47:56.930Z,984.02
2017-07-26T08:48:56.932Z,984.02
2017-07-26T08:49:56.933Z,983.93
2017-07-26T08:50:56.934Z,983.91
2017-07-26T08:51:56.988Z,983.9
2017-07-26T08:52:56.938Z,983.95
2017-07-26T08:53:56.938Z,983.93
2017-07-26T08:54:56.938Z,983.93
2017-07-26T08:55:56.939Z,983.93
2017-07-26T08:56:56.942Z,983.92
2017-07-26T08:57:56.942Z,983.96
2017-07-26T08:58:56.943Z,983.98
2017-07-26T08:59:56.946Z,983.95
2017-07-26T09:00:56.944Z,984.05
2017-07-26T09:01:56.946Z,984.08
2017-07-26T09:02:56.947Z,984.01
2017-07-26T09:03:56.949Z,984.11
2017-07-26T09:04:56.947Z,984.12
2017-07-26T09:05:56.948Z,984.18
2017-07-26T09:06:56.949Z,984.23
2017-07-26T09:07:56.958Z,984.23
2017-07-26T09:08:56.949Z,984.17
2017-07-26T09:09:56.949Z,984.22
2017-07-26T09:10:56.951Z,984.22
2017-07-26T09:11:56.951Z,984.21
2017-07-26T09:12:56.951Z,984.21
2017-07-26T09:13:56.953Z,984.31
2017-07-26T09:14:56.955Z,984.35
2017-07-26T09:15:56.953Z,984.29
2017-07-26T09:16:56.986Z,984.27
2017-07-26T09:17:56.954Z,984.28
2017-07-26T09:18:56.956Z,984.32
2017-07-26T09:19:56.956Z,984.22
2017-07-26T09:20:56.956Z,984.35
2017-07-26T09:21:56.957Z,984.26
2017-07-26T09:22:56.957Z,984.31
2017-07-26T09:23:56.958Z,984.33
2017-07-26T09:24:56.959Z,984.27
2017-07-26T09:25:56.965Z,984.26
2017-07-26T09:26:56.959Z,984.27
2017-07-26T09:27:56.962Z,984.32
2017-07-26T09:28:56.963Z,984.3
2017-07-26T09:29:56.963Z,984.29
2017-07-26T09:30:56.962Z,984.26
2017-07-26T09:31:56.963Z,984.32
2017-07-26T09:32:56.965Z,984.26
2017-07-26T09:33:56.964Z,984.25
2017-07-26T09:34:56.965Z,984.28
2017-07-26T09:35:56.969Z,984.31
2017-07-26T09:36:56.971Z,984.25
2017-07-26T09:37:56.967Z,984.3
2017-07-26T09:38:56.968Z,984.3
2017-07-26T09:39:56.971Z,984.3
2017-07-26T09:40:56.969Z,984.33
2017-07-26T09:41:56.969Z,984.33
2017-07-26T09:42:56.970Z,984.27
2017-07-26T09:43:56.971Z,984.32
2017-07-26T09:44:56.970Z,984.35
2017-07-26T09:45:56.972Z,984.35
2017-07-26T09:46:56.972Z,984.29
2017-07-26T09:47:56.973Z,984.31
2017-07-26T09:48:56.973Z,984.4
2017-07-26T09:49:56.975Z,984.35
2017-07-26T09:50:56.974Z,984.4
2017-07-26T09:51:56.976Z,984.4
2017-07-26T09:52:57.024Z,984.44
2017-07-26T09:53:56.976Z,984.45
2017-07-26T09:54:56.975Z,984.46
2017-07-26T09:55:56.977Z,984.45
2017-07-26T09:56:56.975Z,984.45
2017-07-26T09:57:56.978Z,984.44
2017-07-26T09:58:56.979Z,984.49
2017-07-26T09:59:56.978Z,984.46
2017-07-26T10:00:56.979Z,984.55
2017-07-26T10:01:56.979Z,984.46
2017-07-26T10:02:56.980Z,984.53
2017-07-26T10:03:56.981Z,984.52
2017-07-26T10:04:56.984Z,984.52
2017-07-26T10:05:56.983Z,984.56
2017-07-26T10:06:56.981Z,984.54
2017-07-26T10:07:56.983Z,984.54
2017-07-26T10:08:56.983Z,984.55
2017-07-26T10:09:56.985Z,984.59
2017-07-26T10:10:57.062Z,984.59
2017-07-26T10:11:56.985Z,984.61
2017-07-26T10:12:56.988Z,984.64
2017-07-26T10:13:56.985Z,984.61
2017-07-26T10:14:56.988Z,984.61
2017-07-26T10:15:56.989Z,984.65
2017-07-26T10:16:56.989Z,984.65
2017-07-26T10:17:56.988Z,984.61
2017-07-26T10:18:56.991Z,984.6
2017-07-26T10:19:56.991Z,984.65
2017-07-26T10:20:56.993Z,984.69
2017-07-26T10:21:56.997Z,984.7
2017-07-26T10:22:56.994Z,984.74
2017-07-26T10:23:57.003Z,984.69
2017-07-26T10:24:56.998Z,984.69
2017-07-26T10:25:57.005Z,984.72
2017-07-26T10:26:57.004Z,984.74
2017-07-26T10:27:57.008Z,984.73
2017-07-26T10:28:57.009Z,984.76
2017-07-26T10:29:57.008Z,984.75
2017-07-26T10:30:57.008Z,984.78
2017-07-26T10:31:57.011Z,984.82
2017-07-26T10:32:57.012Z,984.86
2017-07-26T10:33:57.016Z,984.84
2017-07-26T10:34:57.007Z,984.87
2017-07-26T10:35:57.011Z,984.87
2017-07-26T10:36:57.010Z,984.89
2017-07-26T10:37:57.013Z,984.88
2017-07-26T10:38:57.012Z,984.88
2017-07-26T10:39:57.015Z,984.89
2017-07-26T10:40:57.017Z,984.87
2017-07-26T10:41:57.018Z,984.86
2017-07-26T10:42:57.020Z,984.85
2017-07-26T10:43:57.021Z,984.85
2017-07-26T10:44:57.022Z,984.81
2017-07-26T10:45:57.022Z,984.8
2017-07-26T10:46:57.024Z,984.86
2017-07-26T10:47:57.028Z,984.87
2017-07-26T10:48:57.029Z,984.9
2017-07-26T10:49:57.030Z,984.9
2017-07-26T10:50:57.032Z,984.95
2017-07-26T10:51:57.034Z,984.95
2017-07-26T10:52:57.035Z,984.94
2017-07-26T10:53:57.036Z,984.97
2017-07-26T10:54:57.037Z,984.91
2017-07-26T10:55:57.040Z,984.93
2017-07-26T10:56:57.042Z,984.93
2017-07-26T10:57:57.042Z,984.92
2017-07-26T10:58:57.043Z,984.96
2017-07-26T10:59:57.045Z,984.97
2017-07-26T11:00:57.047Z,984.96
2017-07-26T11:01:57.047Z,984.93
2017-07-26T11:02:57.049Z,984.99
2017-07-26T11:03:57.051Z,984.96
2017-07-26T11:04:57.052Z,984.96
2017-07-26T11:05:57.053Z,985
2017-07-26T11:06:57.056Z,984.97
2017-07-26T11:07:57.058Z,984.92
2017-07-26T11:08:57.058Z,985.02
2017-07-26T11:09:57.060Z,984.96
2017-07-26T11:10:57.061Z,984.99
2017-07-26T11:11:57.064Z,984.95
2017-07-26T11:12:57.065Z,984.95
2017-07-26T11:13:57.067Z,985.02
2017-07-26T11:14:57.077Z,984.94
2017-07-26T11:15:57.078Z,984.98
2017-07-26T11:16:57.078Z,985.01
2017-07-26T11:17:57.085Z,984.97
2017-07-26T11:18:57.081Z,985.03
2017-07-26T11:19:57.079Z,985.02
2017-07-26T11:20:57.081Z,984.93
2017-07-26T11:21:57.086Z,984.97
2017-07-26T11:22:57.084Z,984.9
2017-07-26T11:23:57.134Z,985
2017-07-26T11:24:57.087Z,984.93
2017-07-26T11:25:57.088Z,984.98
2017-07-26T11:26:57.090Z,984.96
2017-07-26T11:27:57.092Z,984.99
2017-07-26T11:28:57.093Z,984.95
2017-07-26T11:29:57.096Z,984.98
2017-07-26T11:30:57.097Z,985
2017-07-26T11:31:57.137Z,985.02
2017-07-26T11:32:57.101Z,984.95
2017-07-26T11:33:57.102Z,985.07
2017-07-26T11:34:57.102Z,985.07
2017-07-26T11:35:57.107Z,985.04
2017-07-26T11:36:57.107Z,985.06
2017-07-26T11:37:57.110Z,985.03
2017-07-26T11:38:57.116Z,985.08
2017-07-26T11:39:57.114Z,985.08
2017-07-26T11:40:57.121Z,985.13
2017-07-26T11:41:57.117Z,985.14
2017-07-26T11:42:57.120Z,985.17
2017-07-26T11:43:57.131Z,985.11
2017-07-26T11:44:57.135Z,985.19
2017-07-26T11:45:57.134Z,985.13
2017-07-26T11:46:57.133Z,985.16
2017-07-26T11:47:57.138Z,985.17
2017-07-26T11:48:57.136Z,985.23
2017-07-26T11:49:57.141Z,985.2
2017-07-26T11:50:57.137Z,985.25
2017-07-26T11:51:57.139Z,985.2
2017-07-26T11:52:57.145Z,985.24
2017-07-26T11:53:57.144Z,985.23
2017-07-26T11:54:57.147Z,985.21
2017-07-26T11:55:57.155Z,985.27
2017-07-26T11:56:57.153Z,985.31
2017-07-26T11:57:57.156Z,985.28
2017-07-26T11:58:57.155Z,985.27
2017-07-26T11:59:57.153Z,985.38
2017-07-26T12:00:57.234Z,985.37
2017-07-26T12:01:57.655Z,985.4
2017-07-26T12:02:57.791Z,985.37
2017-07-26T12:03:57.406Z,985.4
2017-07-26T12:04:57.737Z,985.42
2017-07-26T12:05:57.743Z,985.47
2017-07-26T12:06:57.858Z,985.48
2017-07-26T12:07:57.170Z,985.51
2017-07-26T12:08:57.421Z,985.5
2017-07-26T12:09:57.173Z,985.47
2017-07-26T12:10:57.661Z,985.54
2017-07-26T12:11:57.612Z,985.49
2017-07-26T12:12:57.982Z,985.42
2017-07-26T12:13:57.864Z,985.52
2017-07-26T12:14:57.665Z,985.51
2017-07-26T12:15:57.867Z,985.55
2017-07-26T12:16:57.185Z,985.5
2017-07-26T12:17:57.190Z,985.49
2017-07-26T12:18:57.191Z,985.46
2017-07-26T12:19:57.191Z,985.53
2017-07-26T12:20:57.195Z,985.59
2017-07-26T12:21:57.195Z,985.58
2017-07-26T12:22:57.198Z,985.62
2017-07-26T12:23:57.200Z,985.67
2017-07-26T12:24:57.251Z,985.65
2017-07-26T12:25:57.208Z,985.68
2017-07-26T12:26:57.204Z,985.68
2017-07-26T12:27:57.207Z,985.69
2017-07-26T12:28:57.208Z,985.69
2017-07-26T12:29:57.210Z,985.64
2017-07-26T12:30:57.214Z,985.68
2017-07-26T12:31:57.216Z,985.59